Omura, Japan
Current Conditions -  °F | °C
As of 8:00 PM on Friday 24 Oct 2014 (Local Time) from RJFU Reporting Station
Few Clouds Few Clouds  
Wind Chill: 63°   Ceiling: Unl
Heat Index: 63°   Visibility: 6mi
Dew Point: 57°   Wind: 5mph
Humidity: 82%   Direction: 50°NE
Pressure: 30.09"   Gusts: NA
Location:  32.91°N, 129.95°E
Report Text: RJFU 241100Z 05004KT 9999 FEW030 17/14 Q1019
Loading
Personal Weather Stations






























Interactive Weather Map
Tropical Storm Tracking
New forecast layout! Learn more

10-Day Weather Forecast

Advertisements
Track Severe Weather on mobile